Time;durP1;ratioP1;P1;durP2;ratioP2;P2;SDS_P1;SDS_P2;PMS_P1;PMS_P2;Temp;Humidity;BMP_temperature;BMP_pressure;BME280_temperature;BME280_humidity;BME280_pressure;Samples;Min_cycle;Max_cycle;Signal;HPM_P1;HPM_P2
2022/01/03 00:00:58;;;;;;;13.07;1.98;;;;;;;;;;5072431;28;20090;-66
2022/01/03 00:03:23;;;;;;;9.70;2.35;;;;;;;;;;5071018;28;20032;-66
2022/01/03 00:05:48;;;;;;;10.77;2.25;;;;;;;;;;5072459;28;20041;-67
2022/01/03 00:08:13;;;;;;;11.95;1.95;;;;;;;;;;5071662;28;20488;-66
2022/01/03 00:10:39;;;;;;;10.73;2.10;;;;;;;;;;5072135;28;20037;-66
2022/01/03 00:13:05;;;;;;;10.02;1.98;;;;;;;;;;5072381;28;20031;-66
2022/01/03 00:15:30;;;;;;;7.72;1.90;;;;;;;;;;5072331;28;20033;-66
2022/01/03 00:17:55;;;;;;;10.93;2.20;;;;;;;;;;5072559;28;20481;-66
2022/01/03 00:20:21;;;;;;;17.80;2.63;;;;;;;;;;5072294;28;20044;-64
2022/01/03 00:22:53;;;;;;;6.95;2.03;;;;;;;;;;5072413;28;20029;-66
2022/01/03 00:25:19;;;;;;;6.88;1.58;;;;;;;;;;5072000;28;20044;-66
2022/01/03 00:28:02;;;;;;;13.75;1.83;;;;;;;;;;5070348;28;20570;-65
2022/01/03 00:30:28;;;;;;;11.90;2.78;;;;;;;;;;5071750;28;20024;-66
2022/01/03 00:32:53;;;;;;;9.15;2.03;;;;;;;;;;5072075;28;20086;-66
2022/01/03 00:35:20;;;;;;;10.10;1.83;;;;;;;;;;5072410;28;20025;-65
2022/01/03 00:37:46;;;;;;;15.32;3.15;;;;;;;;;;5071813;28;20388;-67
2022/01/03 00:40:12;;;;;;;14.00;3.30;;;;;;;;;;5072724;28;20419;-66
2022/01/03 00:42:37;;;;;;;11.45;2.70;;;;;;;;;;5072436;28;20032;-66
2022/01/03 00:45:03;;;;;;;9.65;1.80;;;;;;;;;;5072535;28;20036;-66
2022/01/03 00:47:31;;;;;;;8.63;1.75;;;;;;;;;;5072471;28;20021;-66
2022/01/03 00:49:56;;;;;;;10.45;2.22;;;;;;;;;;5072672;28;20052;-66
2022/01/03 00:52:22;;;;;;;12.32;2.15;;;;;;;;;;5072011;28;20067;-64
2022/01/03 00:54:47;;;;;;;11.82;2.22;;;;;;;;;;5072407;28;20033;-66
2022/01/03 00:57:19;;;;;;;13.93;2.78;;;;;;;;;;5072576;28;20025;-66
2022/01/03 00:59:46;;;;;;;17.85;2.95;;;;;;;;;;5072934;28;20377;-66
2022/01/03 01:02:13;;;;;;;14.18;3.35;;;;;;;;;;5072895;28;20060;-65
2022/01/03 01:04:41;;;;;;;10.77;2.00;;;;;;;;;;5072014;28;20040;-66
2022/01/03 01:07:07;;;;;;;5.50;1.58;;;;;;;;;;5072450;28;20078;-66
2022/01/03 01:09:34;;;;;;;5.45;1.48;;;;;;;;;;5072237;28;20040;-66
2022/01/03 01:12:03;;;;;;;7.13;1.63;;;;;;;;;;5072036;28;20120;-67
2022/01/03 01:14:28;;;;;;;9.75;1.58;;;;;;;;;;5071887;28;20111;-66
2022/01/03 01:16:54;;;;;;;11.95;1.90;;;;;;;;;;5072889;28;20112;-67
2022/01/03 01:19:20;;;;;;;7.80;1.73;;;;;;;;;;5072409;28;20123;-66
2022/01/03 01:21:47;;;;;;;6.22;1.70;;;;;;;;;;5071855;28;20396;-66
2022/01/03 01:24:14;;;;;;;8.10;1.92;;;;;;;;;;5071898;28;20374;-65
2022/01/03 01:29:23;;;;;;;8.68;1.42;;;;;;;;;;5072523;28;20019;-65
2022/01/03 01:31:53;;;;;;;8.23;2.85;;;;;;;;;;5072303;28;20436;-66
2022/01/03 01:34:25;;;;;;;5.13;1.73;;;;;;;;;;5071747;28;20028;-66
2022/01/03 01:36:51;;;;;;;8.15;2.10;;;;;;;;;;5072145;28;20039;-66
2022/01/03 01:39:17;;;;;;;6.00;1.20;;;;;;;;;;5074558;28;20079;-66
2022/01/03 01:41:43;;;;;;;9.13;2.60;;;;;;;;;;5075560;28;20025;-65
2022/01/03 01:44:09;;;;;;;7.85;1.70;;;;;;;;;;5075787;28;20035;-66
2022/01/03 01:46:41;;;;;;;8.18;2.35;;;;;;;;;;5075775;28;20028;-66
2022/01/03 01:49:06;;;;;;;9.25;1.90;;;;;;;;;;5075731;28;20481;-66
2022/01/03 01:51:36;;;;;;;10.82;1.60;;;;;;;;;;5075254;28;20081;-66
2022/01/03 01:54:04;;;;;;;12.68;3.55;;;;;;;;;;5075121;28;20035;-66
2022/01/03 01:56:53;;;;;;;11.98;2.08;;;;;;;;;;5075842;28;20035;-66
2022/01/03 01:59:25;;;;;;;6.05;1.63;;;;;;;;;;5075820;28;20028;-66
2022/01/03 02:01:50;;;;;;;9.18;2.50;;;;;;;;;;5075616;28;20043;-67
2022/01/03 02:04:28;;;;;;;9.00;2.00;;;;;;;;;;5073823;28;20127;-67
2022/01/03 02:06:55;;;;;;;6.35;1.85;;;;;;;;;;5075299;28;20464;-67
2022/01/03 02:09:23;;;;;;;11.68;1.65;;;;;;;;;;5075349;28;20358;-67
2022/01/03 02:11:55;;;;;;;9.70;2.08;;;;;;;;;;5075084;28;20059;-67
2022/01/03 02:14:22;;;;;;;10.52;2.05;;;;;;;;;;5074919;28;20028;-66
2022/01/03 02:16:47;;;;;;;8.55;2.05;;;;;;;;;;5076116;28;20016;-67
2022/01/03 02:19:13;;;;;;;9.65;1.85;;;;;;;;;;5075213;28;20043;-67
2022/01/03 02:21:38;;;;;;;13.55;2.55;;;;;;;;;;5074521;28;20029;-66
2022/01/03 02:24:04;;;;;;;12.73;2.15;;;;;;;;;;5073600;28;20111;-66
2022/01/03 02:26:29;;;;;;;13.70;2.88;;;;;;;;;;5074095;28;20044;-66
2022/01/03 02:28:55;;;;;;;11.50;2.00;;;;;;;;;;5075198;28;20524;-67
2022/01/03 02:31:21;;;;;;;10.07;2.30;;;;;;;;;;5074860;28;20040;-66
2022/01/03 02:33:47;;;;;;;8.85;1.60;;;;;;;;;;5074603;28;20017;-67
2022/01/03 02:36:12;;;;;;;9.57;2.15;;;;;;;;;;5074587;28;20522;-67
2022/01/03 02:38:37;;;;;;;8.93;2.20;;;;;;;;;;5074860;28;20132;-66
2022/01/03 02:41:03;;;;;;;8.73;2.50;;;;;;;;;;5075418;28;20095;-67
2022/01/03 02:43:28;;;;;;;11.70;2.05;;;;;;;;;;5074792;28;20029;-67
2022/01/03 02:45:53;;;;;;;13.82;2.00;;;;;;;;;;5074396;28;20047;-67
2022/01/03 02:48:20;;;;;;;12.60;1.90;;;;;;;;;;5074755;28;20493;-66
2022/01/03 02:50:46;;;;;;;14.95;2.20;;;;;;;;;;5074391;28;20029;-68
2022/01/03 02:53:12;;;;;;;6.47;1.83;;;;;;;;;;5074807;28;20047;-66
2022/01/03 02:55:37;;;;;;;8.43;2.08;;;;;;;;;;5074364;28;20459;-66
2022/01/03 02:58:07;;;;;;;7.82;1.60;;;;;;;;;;5074693;28;20146;-66
2022/01/03 03:00:34;;;;;;;7.90;2.05;;;;;;;;;;5074280;28;20500;-66
2022/01/03 03:02:59;;;;;;;12.82;1.85;;;;;;;;;;5074168;28;20109;-66
2022/01/03 03:05:24;;;;;;;10.73;2.10;;;;;;;;;;5074262;28;20082;-65
2022/01/03 03:07:50;;;;;;;13.10;2.63;;;;;;;;;;5074602;28;20008;-66
2022/01/03 03:10:17;;;;;;;15.38;2.83;;;;;;;;;;5074194;28;20021;-65
2022/01/03 03:12:42;;;;;;;9.50;2.03;;;;;;;;;;5074187;28;20043;-66
2022/01/03 03:15:08;;;;;;;11.93;2.80;;;;;;;;;;5074216;28;20025;-67
2022/01/03 03:17:34;;;;;;;11.25;1.85;;;;;;;;;;5073138;28;20024;-66
2022/01/03 03:20:02;;;;;;;15.18;2.97;;;;;;;;;;5074452;28;20381;-66
2022/01/03 03:22:28;;;;;;;15.70;2.30;;;;;;;;;;5072235;28;20025;-66
2022/01/03 03:25:02;;;;;;;9.77;2.03;;;;;;;;;;5073349;28;20049;-67
2022/01/03 03:27:28;;;;;;;8.15;1.60;;;;;;;;;;5073835;28;20492;-66
2022/01/03 03:29:53;;;;;;;14.95;2.97;;;;;;;;;;5072483;28;20115;-66
2022/01/03 03:32:19;;;;;;;11.52;2.45;;;;;;;;;;5073707;28;20073;-65
2022/01/03 03:34:45;;;;;;;15.65;2.92;;;;;;;;;;5074556;28;20105;-67
2022/01/03 03:37:10;;;;;;;9.73;1.90;;;;;;;;;;5073994;28;20029;-66
2022/01/03 03:39:36;;;;;;;16.08;3.00;;;;;;;;;;5073790;28;20047;-67
2022/01/03 03:42:02;;;;;;;14.43;2.53;;;;;;;;;;5074025;28;20035;-67
2022/01/03 03:44:27;;;;;;;12.20;2.53;;;;;;;;;;5074603;28;20028;-66
2022/01/03 03:46:53;;;;;;;11.25;2.10;;;;;;;;;;5074400;28;20036;-66
2022/01/03 03:49:18;;;;;;;15.07;3.40;;;;;;;;;;5074180;28;20029;-66
2022/01/03 03:51:43;;;;;;;11.73;2.88;;;;;;;;;;5074014;28;20393;-66
2022/01/03 03:54:08;;;;;;;8.30;2.30;;;;;;;;;;5073578;28;20028;-66
2022/01/03 03:56:34;;;;;;;12.23;2.20;;;;;;;;;;5073560;28;20503;-66
2022/01/03 03:58:59;;;;;;;9.13;3.13;;;;;;;;;;5074266;28;20373;-66
2022/01/03 04:01:24;;;;;;;14.18;2.80;;;;;;;;;;5071740;28;20034;-66
2022/01/03 04:03:50;;;;;;;11.20;2.40;;;;;;;;;;5072979;28;20450;-66
2022/01/03 04:06:15;;;;;;;11.45;1.88;;;;;;;;;;5072718;28;20037;-67
2022/01/03 04:08:40;;;;;;;12.05;2.47;;;;;;;;;;5073175;28;20398;-66
2022/01/03 04:11:05;;;;;;;15.65;2.60;;;;;;;;;;5073626;28;20032;-67
2022/01/03 04:13:30;;;;;;;12.00;3.00;;;;;;;;;;5072997;28;20029;-67
2022/01/03 04:15:56;;;;;;;10.80;2.33;;;;;;;;;;5072602;28;20361;-67
2022/01/03 04:18:21;;;;;;;13.30;2.75;;;;;;;;;;5072802;28;20153;-67
2022/01/03 04:20:46;;;;;;;13.38;2.13;;;;;;;;;;5073240;28;20028;-66
2022/01/03 04:23:12;;;;;;;15.52;3.30;;;;;;;;;;5073070;28;20032;-66
2022/01/03 04:25:38;;;;;;;10.30;2.25;;;;;;;;;;5072305;28;20041;-67
2022/01/03 04:28:03;;;;;;;14.05;2.72;;;;;;;;;;5072923;28;20036;-66
2022/01/03 04:30:28;;;;;;;11.73;3.00;;;;;;;;;;5073076;28;20486;-66
2022/01/03 04:32:54;;;;;;;12.18;2.50;;;;;;;;;;5072566;28;20075;-66
2022/01/03 04:35:19;;;;;;;10.93;2.53;;;;;;;;;;5072609;28;20052;-66
2022/01/03 04:37:44;;;;;;;12.45;2.30;;;;;;;;;;5072954;28;20044;-66
2022/01/03 04:40:09;;;;;;;13.88;3.30;;;;;;;;;;5072839;28;20040;-67
2022/01/03 04:42:35;;;;;;;12.38;2.05;;;;;;;;;;5072505;28;20040;-66
2022/01/03 04:45:02;;;;;;;9.90;2.10;;;;;;;;;;5072209;28;20033;-67
2022/01/03 04:47:27;;;;;;;13.70;3.40;;;;;;;;;;5072711;28;20047;-66
2022/01/03 04:49:52;;;;;;;16.65;2.28;;;;;;;;;;5072906;28;20029;-66
2022/01/03 04:52:17;;;;;;;11.82;2.40;;;;;;;;;;5072369;28;20037;-66
2022/01/03 04:54:42;;;;;;;16.58;2.75;;;;;;;;;;5072209;28;20496;-66
2022/01/03 04:57:08;;;;;;;15.50;2.38;;;;;;;;;;5072556;28;20044;-66
2022/01/03 04:59:33;;;;;;;9.98;2.03;;;;;;;;;;5072727;28;20063;-66
2022/01/03 05:02:00;;;;;;;14.68;2.97;;;;;;;;;;5061629;28;20092;-66
2022/01/03 05:04:25;;;;;;;17.17;3.13;;;;;;;;;;5051900;28;20119;-66
2022/01/03 05:06:50;;;;;;;12.70;2.78;;;;;;;;;;5051733;28;20112;-66
2022/01/03 05:09:16;;;;;;;13.50;3.55;;;;;;;;;;5067278;28;20550;-66
2022/01/03 05:11:42;;;;;;;12.65;2.85;;;;;;;;;;5073606;28;20383;-66
2022/01/03 05:14:07;;;;;;;12.60;3.05;;;;;;;;;;5074509;28;20033;-67
2022/01/03 05:16:32;;;;;;;14.68;2.60;;;;;;;;;;5076181;28;20081;-66
2022/01/03 05:18:57;;;;;;;11.10;3.13;;;;;;;;;;5076371;28;20081;-66
2022/01/03 05:21:24;;;;;;;12.73;2.65;;;;;;;;;;5075839;28;20041;-66
2022/01/03 05:23:49;;;;;;;12.02;3.03;;;;;;;;;;5075900;28;20064;-66
2022/01/03 05:26:16;;;;;;;13.02;2.80;;;;;;;;;;5075986;28;20048;-66
2022/01/03 05:28:42;;;;;;;16.67;3.35;;;;;;;;;;5076441;28;20045;-66
2022/01/03 05:31:09;;;;;;;10.40;2.83;;;;;;;;;;5075933;28;20035;-66
2022/01/03 05:33:34;;;;;;;16.85;3.60;;;;;;;;;;5076281;28;20032;-67
2022/01/03 05:35:59;;;;;;;18.63;2.70;;;;;;;;;;5075653;28;20095;-66
2022/01/03 05:38:24;;;;;;;18.17;3.08;;;;;;;;;;5074322;28;20025;-66
2022/01/03 05:40:49;;;;;;;14.68;3.33;;;;;;;;;;5076468;28;20016;-66
2022/01/03 05:43:15;;;;;;;15.73;2.60;;;;;;;;;;5075882;28;20056;-67
2022/01/03 05:45:40;;;;;;;19.60;3.08;;;;;;;;;;5075340;28;20064;-67
2022/01/03 05:48:05;;;;;;;11.68;3.05;;;;;;;;;;5074220;28;20053;-66
2022/01/03 05:50:30;;;;;;;15.85;3.53;;;;;;;;;;5075659;28;20488;-66
2022/01/03 05:52:55;;;;;;;6.78;1.83;;;;;;;;;;5075909;28;20032;-66
2022/01/03 05:55:21;;;;;;;11.25;2.42;;;;;;;;;;5075366;28;20032;-66
2022/01/03 05:57:47;;;;;;;12.60;2.58;;;;;;;;;;5075307;28;20052;-66
2022/01/03 06:00:15;;;;;;;14.38;2.45;;;;;;;;;;5075729;28;20067;-66
2022/01/03 06:02:42;;;;;;;9.20;2.80;;;;;;;;;;5075813;28;20085;-66
2022/01/03 06:05:10;;;;;;;9.98;2.50;;;;;;;;;;5075573;28;20044;-65
2022/01/03 06:07:35;;;;;;;9.00;2.72;;;;;;;;;;5074888;28;20024;-66
2022/01/03 06:10:02;;;;;;;11.00;2.80;;;;;;;;;;5076711;28;20556;-66
2022/01/03 06:12:27;;;;;;;12.35;2.22;;;;;;;;;;5075579;28;20070;-65
2022/01/03 06:14:53;;;;;;;14.45;3.13;;;;;;;;;;5075089;28;20119;-65
2022/01/03 06:17:19;;;;;;;12.15;2.20;;;;;;;;;;5075220;28;20418;-65
2022/01/03 06:19:44;;;;;;;7.70;2.15;;;;;;;;;;5075586;28;20020;-66
2022/01/03 06:22:09;;;;;;;9.50;2.10;;;;;;;;;;5075005;28;20028;-65
2022/01/03 06:24:38;;;;;;;9.35;2.67;;;;;;;;;;5073935;28;20032;-65
2022/01/03 06:27:04;;;;;;;13.65;2.55;;;;;;;;;;5074693;28;20112;-65
2022/01/03 06:29:29;;;;;;;10.00;1.92;;;;;;;;;;5074955;28;20056;-64
2022/01/03 06:31:54;;;;;;;10.65;2.30;;;;;;;;;;5075495;28;20023;-65
2022/01/03 06:34:20;;;;;;;13.15;2.78;;;;;;;;;;5075010;28;20496;-65
2022/01/03 06:36:45;;;;;;;10.90;2.70;;;;;;;;;;5074533;28;20075;-65
2022/01/03 06:39:12;;;;;;;10.88;2.45;;;;;;;;;;5074580;28;20554;-65
2022/01/03 06:41:38;;;;;;;15.15;2.70;;;;;;;;;;5074807;28;20024;-65
2022/01/03 06:44:03;;;;;;;8.38;1.95;;;;;;;;;;5075255;28;20028;-65
2022/01/03 06:46:30;;;;;;;10.20;2.22;;;;;;;;;;5074163;28;20029;-65
2022/01/03 06:48:55;;;;;;;10.27;3.80;;;;;;;;;;5074367;28;20037;-64
2022/01/03 06:51:20;;;;;;;11.23;2.83;;;;;;;;;;5074651;28;20036;-65
2022/01/03 06:53:45;;;;;;;13.10;3.13;;;;;;;;;;5074271;28;20036;-64
2022/01/03 06:56:11;;;;;;;9.80;2.33;;;;;;;;;;5073334;28;20036;-65
2022/01/03 06:58:37;;;;;;;12.70;2.67;;;;;;;;;;5074160;28;20044;-65
2022/01/03 07:01:03;;;;;;;13.45;2.80;;;;;;;;;;5074677;28;20553;-65
2022/01/03 07:03:28;;;;;;;8.23;2.13;;;;;;;;;;5074343;28;20044;-65
2022/01/03 07:05:53;;;;;;;11.60;2.53;;;;;;;;;;5075469;28;20068;-65
2022/01/03 07:08:21;;;;;;;9.60;3.00;;;;;;;;;;5066461;28;20074;-65
2022/01/03 07:10:46;;;;;;;9.05;2.40;;;;;;;;;;5054760;28;20112;-65
2022/01/03 07:13:11;;;;;;;12.63;2.95;;;;;;;;;;5054193;28;20128;-65
2022/01/03 07:21:04;;;;;;;12.85;2.88;;;;;;;;;;5074005;28;20120;-65
2022/01/03 07:23:29;;;;;;;11.30;2.40;;;;;;;;;;5073546;28;20115;-64
2022/01/03 07:25:54;;;;;;;11.40;2.20;;;;;;;;;;5073926;28;20116;-64
2022/01/03 07:28:19;;;;;;;12.15;2.65;;;;;;;;;;5073484;28;20032;-65
2022/01/03 07:30:45;;;;;;;13.27;2.80;;;;;;;;;;5073468;28;20480;-65
2022/01/03 07:33:10;;;;;;;15.88;3.00;;;;;;;;;;5073084;28;20052;-64
2022/01/03 07:35:35;;;;;;;12.77;2.65;;;;;;;;;;5072883;28;20024;-64
2022/01/03 07:38:01;;;;;;;12.85;2.97;;;;;;;;;;5072962;28;20078;-65
2022/01/03 07:40:26;;;;;;;8.35;2.05;;;;;;;;;;5072983;28;20436;-65
2022/01/03 07:42:51;;;;;;;13.35;3.17;;;;;;;;;;5073054;28;20028;-65
2022/01/03 07:45:17;;;;;;;9.65;2.13;;;;;;;;;;5072915;28;20560;-65
2022/01/03 07:47:42;;;;;;;12.00;2.90;;;;;;;;;;5071569;28;20494;-65
2022/01/03 07:50:08;;;;;;;7.00;2.00;;;;;;;;;;5072900;28;20017;-65
2022/01/03 07:52:33;;;;;;;12.85;2.22;;;;;;;;;;5072093;28;20035;-65
2022/01/03 07:54:58;;;;;;;12.70;2.35;;;;;;;;;;5072226;28;20037;-57
2022/01/03 07:57:24;;;;;;;8.02;2.25;;;;;;;;;;5072130;28;20477;-57
2022/01/03 07:59:49;;;;;;;10.85;2.50;;;;;;;;;;5072304;28;20039;-57
2022/01/03 08:02:14;;;;;;;11.25;2.67;;;;;;;;;;5072286;28;20020;-57
2022/01/03 08:04:40;;;;;;;10.27;2.70;;;;;;;;;;5072068;28;20029;-57
2022/01/03 08:07:05;;;;;;;13.15;3.30;;;;;;;;;;5071789;28;20029;-57
2022/01/03 08:09:30;;;;;;;10.30;2.72;;;;;;;;;;5072203;28;20044;-56
2022/01/03 08:11:55;;;;;;;13.90;2.60;;;;;;;;;;5073105;28;20025;-57
2022/01/03 08:14:21;;;;;;;11.57;2.50;;;;;;;;;;5073196;28;20024;-57
2022/01/03 08:16:46;;;;;;;12.52;2.60;;;;;;;;;;5073127;28;20084;-57
2022/01/03 08:19:11;;;;;;;10.80;2.28;;;;;;;;;;5071457;28;20037;-57
2022/01/03 08:21:36;;;;;;;9.98;2.08;;;;;;;;;;5072008;28;20028;-57
2022/01/03 08:24:02;;;;;;;15.27;3.05;;;;;;;;;;5071966;28;20052;-58
2022/01/03 08:26:27;;;;;;;14.95;2.90;;;;;;;;;;5071926;28;20032;-57
2022/01/03 08:28:53;;;;;;;16.58;3.05;;;;;;;;;;5072203;28;20020;-57
2022/01/03 08:31:19;;;;;;;12.55;2.35;;;;;;;;;;5072129;28;20024;-57
2022/01/03 08:33:44;;;;;;;12.43;3.20;;;;;;;;;;5072536;28;20077;-57
2022/01/03 08:36:09;;;;;;;12.45;3.00;;;;;;;;;;5072325;28;20032;-57
2022/01/03 08:38:35;;;;;;;11.27;2.40;;;;;;;;;;5071986;28;20503;-55
2022/01/03 08:41:00;;;;;;;11.65;2.72;;;;;;;;;;5072668;28;20021;-56
2022/01/03 08:43:25;;;;;;;9.95;2.60;;;;;;;;;;5072316;28;20408;-56
2022/01/03 08:45:50;;;;;;;12.05;3.10;;;;;;;;;;5070258;28;20052;-57
2022/01/03 08:48:16;;;;;;;8.88;2.53;;;;;;;;;;5071508;28;20032;-58
2022/01/03 08:50:41;;;;;;;13.77;2.33;;;;;;;;;;5072291;28;20485;-58
2022/01/03 08:53:07;;;;;;;11.77;2.20;;;;;;;;;;5072455;28;20085;-56
2022/01/03 08:55:32;;;;;;;13.57;2.55;;;;;;;;;;5071442;28;20115;-57
2022/01/03 08:57:57;;;;;;;10.38;2.58;;;;;;;;;;5073917;28;20477;-57
2022/01/03 09:00:22;;;;;;;12.18;2.25;;;;;;;;;;5072623;28;20576;-57
2022/01/03 09:02:48;;;;;;;11.43;3.13;;;;;;;;;;5072121;28;20048;-57
2022/01/03 09:05:13;;;;;;;13.50;2.60;;;;;;;;;;5072593;28;20449;-57
2022/01/03 09:07:38;;;;;;;11.80;2.83;;;;;;;;;;5071778;28;20501;-57
2022/01/03 09:10:04;;;;;;;10.77;2.28;;;;;;;;;;5071533;28;20394;-57
2022/01/03 09:12:29;;;;;;;13.10;2.47;;;;;;;;;;5072044;28;20037;-57
2022/01/03 09:14:54;;;;;;;12.45;2.90;;;;;;;;;;5071863;28;20119;-57
2022/01/03 09:17:20;;;;;;;11.00;2.78;;;;;;;;;;5071957;28;20033;-57
2022/01/03 09:19:45;;;;;;;13.77;3.08;;;;;;;;;;5070236;28;20490;-56
2022/01/03 09:22:21;;;;;;;11.35;2.20;;;;;;;;;;5071382;28;20029;-57
2022/01/03 09:24:54;;;;;;;12.73;3.17;;;;;;;;;;5069933;28;20036;-56
2022/01/03 09:30:04;;;;;;;11.43;2.88;;;;;;;;;;5071461;28;20511;-55
2022/01/03 09:32:29;;;;;;;12.18;2.85;;;;;;;;;;5071095;28;20052;-58
2022/01/03 09:34:57;;;;;;;9.63;2.78;;;;;;;;;;5069651;28;20032;-54
2022/01/03 09:37:23;;;;;;;15.52;3.05;;;;;;;;;;5069512;28;20056;-56
2022/01/03 09:39:48;;;;;;;9.18;2.28;;;;;;;;;;5071184;28;20052;-57
2022/01/03 09:42:14;;;;;;;8.65;2.25;;;;;;;;;;5071154;28;20165;-56
2022/01/03 09:44:41;;;;;;;10.48;2.95;;;;;;;;;;5071214;28;20037;-56
2022/01/03 09:47:08;;;;;;;13.45;3.03;;;;;;;;;;5071578;28;20085;-56
2022/01/03 09:49:35;;;;;;;10.65;2.65;;;;;;;;;;5071006;28;20033;-55
2022/01/03 09:52:02;;;;;;;13.27;2.60;;;;;;;;;;5071458;28;20035;-56
2022/01/03 09:54:27;;;;;;;13.05;3.03;;;;;;;;;;5072830;28;20028;-55
2022/01/03 09:56:54;;;;;;;9.13;2.45;;;;;;;;;;5070959;28;20052;-56
2022/01/03 09:59:19;;;;;;;10.18;2.38;;;;;;;;;;5071080;28;20036;-56
2022/01/03 10:01:44;;;;;;;13.57;2.58;;;;;;;;;;5074285;28;20052;-55
2022/01/03 10:04:12;;;;;;;10.38;2.35;;;;;;;;;;5074784;28;20442;-54
2022/01/03 10:06:38;;;;;;;16.13;2.40;;;;;;;;;;5074383;28;20500;-57
2022/01/03 10:09:03;;;;;;;8.65;2.25;;;;;;;;;;5074404;28;20025;-57
2022/01/03 10:11:28;;;;;;;9.05;2.40;;;;;;;;;;5075239;28;20031;-56
2022/01/03 10:13:54;;;;;;;10.45;2.45;;;;;;;;;;5074147;28;20021;-58
2022/01/03 10:16:19;;;;;;;13.38;2.83;;;;;;;;;;5073500;28;20036;-56
2022/01/03 10:18:45;;;;;;;8.10;2.00;;;;;;;;;;5073186;28;20029;-58
2022/01/03 10:21:10;;;;;;;9.32;2.60;;;;;;;;;;5073287;28;20127;-57
2022/01/03 10:23:36;;;;;;;12.52;2.60;;;;;;;;;;5073299;28;20109;-58
2022/01/03 10:26:12;;;;;;;15.13;2.88;;;;;;;;;;5073368;28;20123;-58
2022/01/03 10:28:38;;;;;;;14.00;2.65;;;;;;;;;;5073257;28;20120;-57
2022/01/03 10:31:12;;;;;;;18.63;3.70;;;;;;;;;;5071345;28;20184;-57
2022/01/03 10:33:37;;;;;;;16.35;3.25;;;;;;;;;;5073211;28;20108;-58
2022/01/03 10:36:03;;;;;;;10.98;2.03;;;;;;;;;;5073252;28;20131;-58
2022/01/03 10:38:36;;;;;;;13.68;2.63;;;;;;;;;;5073211;28;20017;-58
2022/01/03 10:41:08;;;;;;;10.30;2.38;;;;;;;;;;5071922;28;20028;-59
2022/01/03 10:43:33;;;;;;;14.40;3.30;;;;;;;;;;5073853;28;20031;-55
2022/01/03 10:45:59;;;;;;;13.05;2.60;;;;;;;;;;5074398;28;20123;-57
2022/01/03 10:48:29;;;;;;;12.90;2.38;;;;;;;;;;5071334;28;20028;-55
2022/01/03 10:50:55;;;;;;;12.15;2.42;;;;;;;;;;5073688;28;20032;-53
2022/01/03 10:53:37;;;;;;;8.52;2.35;;;;;;;;;;5074065;28;20047;-54
2022/01/03 10:56:24;;;;;;;10.07;2.95;;;;;;;;;;5071718;28;20059;-52
2022/01/03 10:58:50;;;;;;;14.15;2.38;;;;;;;;;;5072166;28;20032;-55
2022/01/03 11:01:20;;;;;;;13.07;2.60;;;;;;;;;;5071978;28;20042;-51
2022/01/03 11:03:46;;;;;;;13.20;2.50;;;;;;;;;;5068623;28;20139;-52
2022/01/03 11:06:22;;;;;;;10.85;2.75;;;;;;;;;;5069931;28;20149;-54
2022/01/03 11:11:36;;;;;;;10.48;2.58;;;;;;;;;;5069973;28;20396;-55
2022/01/03 11:14:02;;;;;;;14.57;3.03;;;;;;;;;;5070321;28;20390;-52
2022/01/03 11:16:30;;;;;;;9.55;2.33;;;;;;;;;;5069566;28;20071;-52
2022/01/03 11:18:56;;;;;;;8.52;2.50;;;;;;;;;;5068005;28;20511;-53
2022/01/03 11:21:23;;;;;;;13.75;3.08;;;;;;;;;;5068872;28;20060;-54
2022/01/03 11:24:02;;;;;;;5.93;1.80;;;;;;;;;;5066788;28;20120;-54
2022/01/03 11:26:30;;;;;;;8.70;2.47;;;;;;;;;;5067841;28;20044;-54
2022/01/03 11:28:55;;;;;;;10.73;2.58;;;;;;;;;;5068464;28;20108;-56
2022/01/03 11:31:21;;;;;;;10.70;2.80;;;;;;;;;;5069129;28;20116;-53
2022/01/03 11:33:47;;;;;;;9.43;3.05;;;;;;;;;;5068660;28;20036;-52
2022/01/03 11:36:13;;;;;;;14.55;2.53;;;;;;;;;;5069334;28;20044;-53
2022/01/03 11:38:39;;;;;;;10.35;2.53;;;;;;;;;;5068992;28;20033;-53
2022/01/03 11:41:06;;;;;;;11.85;2.58;;;;;;;;;;5068317;28;20374;-53
2022/01/03 11:43:36;;;;;;;8.63;2.65;;;;;;;;;;5069251;28;20029;-56
2022/01/03 11:46:01;;;;;;;9.13;2.87;;;;;;;;;;5068850;28;20066;-54
2022/01/03 11:48:28;;;;;;;7.28;1.95;;;;;;;;;;5069370;28;20033;-54
2022/01/03 11:50:54;;;;;;;10.48;2.53;;;;;;;;;;5068824;28;20532;-51
2022/01/03 11:53:20;;;;;;;13.98;3.13;;;;;;;;;;5068070;28;20439;-55
2022/01/03 11:55:49;;;;;;;10.55;2.67;;;;;;;;;;5067660;28;20017;-54
2022/01/03 11:58:27;;;;;;;14.05;2.80;;;;;;;;;;5067913;28;20122;-55
2022/01/03 12:03:49;;;;;;;14.57;3.05;;;;;;;;;;5067118;28;20063;-55
2022/01/03 12:06:23;;;;;;;15.55;2.40;;;;;;;;;;5068484;28;20040;-55
2022/01/03 12:08:55;;;;;;;8.77;2.67;;;;;;;;;;5067050;28;20037;-55
2022/01/03 12:11:23;;;;;;;15.52;2.55;;;;;;;;;;5065892;28;20046;-55
2022/01/03 12:13:57;;;;;;;8.68;2.28;;;;;;;;;;5051305;28;20108;-56
2022/01/03 12:16:44;;;;;;;14.77;2.53;;;;;;;;;;5063470;28;20469;-55
2022/01/03 12:19:27;;;;;;;10.82;2.38;;;;;;;;;;5046578;28;20033;-57
2022/01/03 12:21:54;;;;;;;11.30;2.33;;;;;;;;;;5068019;28;20028;-57
2022/01/03 12:24:28;;;;;;;12.07;3.08;;;;;;;;;;5060659;28;20025;-54
2022/01/03 12:27:12;;;;;;;10.75;2.67;;;;;;;;;;5065577;28;20060;-55
2022/01/03 12:29:52;;;;;;;10.15;2.35;;;;;;;;;;5066262;28;20047;-53
2022/01/03 12:32:18;;;;;;;10.60;2.70;;;;;;;;;;5067210;28;20028;-54
2022/01/03 12:34:43;;;;;;;8.35;2.30;;;;;;;;;;5067000;28;20016;-54
2022/01/03 12:37:19;;;;;;;13.70;3.10;;;;;;;;;;5059389;28;20037;-58
2022/01/03 12:40:03;;;;;;;11.75;3.17;;;;;;;;;;5065205;28;20032;-53
2022/01/03 12:42:53;;;;;;;18.00;3.03;;;;;;;;;;5066571;28;20072;-55
2022/01/03 12:45:31;;;;;;;14.07;2.60;;;;;;;;;;5065374;28;20182;-52
2022/01/03 12:48:09;;;;;;;12.82;3.70;;;;;;;;;;5064940;28;20016;-54
2022/01/03 12:50:44;;;;;;;7.97;2.30;;;;;;;;;;5065413;28;20036;-55
2022/01/03 12:53:12;;;;;;;14.55;3.53;;;;;;;;;;5065375;28;20024;-55
2022/01/03 12:55:37;;;;;;;9.70;2.40;;;;;;;;;;5063082;28;20039;-54
2022/01/03 12:58:03;;;;;;;10.70;2.57;;;;;;;;;;5066205;28;20028;-55
2022/01/03 13:00:42;;;;;;;9.90;2.83;;;;;;;;;;5063871;28;20438;-55
2022/01/03 13:03:25;;;;;;;14.27;2.90;;;;;;;;;;5065170;28;20056;-53
2022/01/03 13:06:06;;;;;;;18.65;3.22;;;;;;;;;;5065511;28;20139;-55
2022/01/03 13:08:31;;;;;;;;;;;;;;;;;;5066421;28;20507;-53
2022/01/03 13:11:00;;;;;;;14.57;3.92;;;;;;;;;;5065331;28;20331;-54
2022/01/03 13:13:28;;;;;;;16.98;2.55;;;;;;;;;;5065309;28;20112;-57
2022/01/03 13:15:53;;;;;;;15.30;2.47;;;;;;;;;;5065805;28;20615;-56
2022/01/03 13:18:18;;;;;;;17.00;3.13;;;;;;;;;;5064846;28;20032;-53
2022/01/03 13:21:10;;;;;;;16.58;2.85;;;;;;;;;;5065212;28;20029;-53
2022/01/03 13:23:35;;;;;;;11.73;2.92;;;;;;;;;;5060522;28;20514;-53
2022/01/03 13:26:01;;;;;;;11.50;2.72;;;;;;;;;;5066648;28;20040;-55
2022/01/03 13:28:26;;;;;;;13.77;3.05;;;;;;;;;;5067230;28;20732;-56
2022/01/03 13:30:59;;;;;;;17.88;3.55;;;;;;;;;;5066043;28;20029;-56
2022/01/03 13:33:24;;;;;;;13.93;3.08;;;;;;;;;;5064962;28;20020;-53
2022/01/03 13:36:05;;;;;;;12.38;2.65;;;;;;;;;;5070518;28;20536;-57
2022/01/03 13:38:31;;;;;;;11.85;2.60;;;;;;;;;;5072149;28;20565;-56
2022/01/03 13:41:13;;;;;;;14.98;2.83;;;;;;;;;;5070709;28;20488;-55
2022/01/03 13:43:41;;;;;;;12.65;2.50;;;;;;;;;;5070729;28;20128;-53
2022/01/03 13:51:17;;;;;;;15.80;2.92;;;;;;;;;;5068762;28;20043;-56
2022/01/03 13:53:49;;;;;;;13.35;2.67;;;;;;;;;;5073587;28;20028;-56
2022/01/03 13:56:14;;;;;;;13.38;2.90;;;;;;;;;;5068126;28;20147;-56
2022/01/03 13:58:41;;;;;;;12.10;2.75;;;;;;;;;;5068376;28;20124;-54
2022/01/03 14:01:06;;;;;;;13.68;3.63;;;;;;;;;;5067853;28;20109;-53
2022/01/03 14:03:32;;;;;;;10.35;2.15;;;;;;;;;;5068708;28;20028;-56
2022/01/03 14:06:16;;;;;;;14.85;2.70;;;;;;;;;;5069394;28;20120;-56
2022/01/03 14:08:42;;;;;;;13.95;2.58;;;;;;;;;;5068041;28;20041;-56
2022/01/03 14:11:12;;;;;;;11.82;2.75;;;;;;;;;;5069586;28;20740;-56
2022/01/03 14:13:37;;;;;;;11.10;2.38;;;;;;;;;;5066830;28;20036;-54
2022/01/03 14:16:06;;;;;;;13.50;2.97;;;;;;;;;;5069388;28;20078;-56
2022/01/03 14:18:39;;;;;;;8.93;2.22;;;;;;;;;;5068004;28;20036;-56
2022/01/03 14:21:12;;;;;;;12.98;2.67;;;;;;;;;;5068770;28;20047;-54
2022/01/03 14:23:44;;;;;;;19.13;2.92;;;;;;;;;;5066092;28;20025;-57
2022/01/03 14:26:14;;;;;;;10.27;2.72;;;;;;;;;;5068380;28;20041;-58
2022/01/03 14:28:40;;;;;;;12.87;2.57;;;;;;;;;;5069621;28;20017;-58
2022/01/03 14:31:06;;;;;;;8.45;2.65;;;;;;;;;;5068612;28;20115;-57
2022/01/03 14:33:32;;;;;;;13.90;2.63;;;;;;;;;;5068062;28;20500;-58
2022/01/03 14:35:57;;;;;;;14.57;2.17;;;;;;;;;;5069099;28;20439;-57
2022/01/03 14:38:28;;;;;;;10.63;2.42;;;;;;;;;;5067646;28;20056;-57
2022/01/03 14:40:53;;;;;;;8.18;2.25;;;;;;;;;;5063390;28;20534;-57
2022/01/03 14:43:23;;;;;;;12.77;2.47;;;;;;;;;;5068526;28;20028;-56
2022/01/03 14:45:50;;;;;;;11.20;2.38;;;;;;;;;;5066964;28;20598;-56
2022/01/03 14:48:19;;;;;;;11.40;2.55;;;;;;;;;;5067044;28;20024;-56
2022/01/03 14:50:45;;;;;;;14.02;2.90;;;;;;;;;;5067674;28;20476;-53
2022/01/03 14:53:11;;;;;;;11.30;3.30;;;;;;;;;;5067044;28;20046;-54
2022/01/03 14:55:38;;;;;;;9.07;2.03;;;;;;;;;;5066600;28;20087;-55